Whitefield, Oklahoma
Current Conditions -  °F | °C
As of 9:15 PM on Monday 20 Oct 2014 (Local Time) from KGZL Reporting Station
Overcast Overcast  
Wind Chill: 64°   Ceiling: 4000
Heat Index: 64°   Visibility: 10mi
Dew Point: 57°   Wind: 6mph
Humidity: 77%   Direction: 120°ESE
Pressure: 30.06"   Gusts: NA
Location:  35.25°N, 95.24°W
Report Text: KGZL 210215Z AUTO 12005KT 10SM OVC040 18/14 A3006 RMK AO2
Loading
Personal Weather Stations






























Interactive Weather Map
Tropical Storm Tracking
New forecast layout! Learn more

10-Day Weather Forecast

Advertisements
Track Severe Weather on mobile